Weather at Aviosuperficie Oasi dei Re

Public forecast

Using degrees Celsius for public forecast. Weather courtesy of forecast.io.

Closest aviation weather report (METAR) to Aviosuperficie Oasi dei Re

Closest report is Comiso Airport, 18.2 nm (33.8 km) NNW. Retrieved 2020/11/25 09:50 UTC (45 minutes ago):

LICB 250950Z AUTO 25003KT 180V300 9999 SCT017 OVC031 17/13 Q1022

Closest aviation forecast (TAF) to Aviosuperficie Oasi dei Re

Closest forecast is Sigonella Navy Air Base, 41.5 nm (76.8 km) N. Retrieved 2020/11/25 06:27 UTC (4 hours ago):

TAF LICZ 250500Z 2506/2606 VRB03KT 8000 RA SCT005 SCT030 TEMPO 2506/2510 4000 TSRA BKN010 FEW050CB TEMPO 2515/2519 6000 TSRA SCT010 SCT040CB